map of NZFX home
NZFX - Airport
Location
City:  McMurdo Station, Ross Island, Antarctica
Name:Phoenix Field
ICAO:NZFX

Details
Type:Airport (Aerodrome, Airfield)
Use:Public/Civil
Latitude:7757'23"S (-77.956271)
Longitude:16646'00"E (166.766750)
Variation:141.91E (WMM2015 magnetic declination)
-0.20 annual change
Runways:1

Weather
METAR:NZFX 160655Z 06011KT 9999 -SN BKN027 BKN035 M25/M30 A2941 RMK SNB23 SLP954 LSR13 GRID23011KT SDF/HDG LAST COR 0704

Related Locations
Nearby:
Farthest:BGNO: 12173 mi / 19591 km
Nord [Station Nord], NEG, GL

Find:

   beyond  
but within

Other Information
Maps:
NOTAMs:
Links:
Sources:

  

Sectional Chart

Flight Planning
at skyvector.com

Satellite Image

Google Maps Satellite view

 

Copyright © 2004-2018 Karl L. Swartz. All rights reserved.
The Great Circle Mapper name and logo are trademarks of the Great Circle Mapper.
All other trademarks mentioned herein belong to their respective owners.
Please see credits for attibutions and further copyright information.

  Follow gcmap on Facebook Follow gcmap on Twitter Follow gcmap on Google+ GCmap on LinkedIn

hCard Microformat

Geo Microformat